createdAt,value
2017-09-24T00:01:04.499Z,54.07
2017-09-24T00:03:31.772Z,54.33
2017-09-24T00:05:59.047Z,47.07
2017-09-24T00:08:26.343Z,50.73
2017-09-24T00:10:53.612Z,53.00
2017-09-24T00:13:20.935Z,48.03
2017-09-24T00:15:48.206Z,57.30
2017-09-24T00:18:15.482Z,62.60
2017-09-24T00:20:42.794Z,76.43
2017-09-24T00:23:10.098Z,51.40
2017-09-24T00:25:37.386Z,57.70
2017-09-24T00:28:04.663Z,66.47
2017-09-24T00:30:31.948Z,58.37
2017-09-24T00:32:59.220Z,60.50
2017-09-24T00:35:26.519Z,60.23
2017-09-24T00:37:53.818Z,53.60
2017-09-24T00:40:21.091Z,61.80
2017-09-24T00:42:48.395Z,57.57
2017-09-24T00:45:15.680Z,60.27
2017-09-24T00:47:43.044Z,62.00
2017-09-24T00:50:10.362Z,57.67
2017-09-24T00:52:37.639Z,71.77
2017-09-24T00:55:04.908Z,79.87
2017-09-24T00:57:32.223Z,65.33
2017-09-24T00:59:59.493Z,64.60
2017-09-24T01:02:26.759Z,66.57
2017-09-24T01:04:54.058Z,66.13
2017-09-24T01:07:21.366Z,73.07
2017-09-24T01:09:48.647Z,75.73
2017-09-24T01:12:15.955Z,69.37
2017-09-24T01:14:43.238Z,68.87
2017-09-24T01:17:10.507Z,71.40
2017-09-24T01:19:37.822Z,68.10
2017-09-24T01:22:05.095Z,73.17
2017-09-24T01:24:32.387Z,71.07
2017-09-24T01:26:59.691Z,64.93
2017-09-24T01:29:26.968Z,58.60
2017-09-24T01:31:54.266Z,50.47
2017-09-24T01:34:21.543Z,56.83
2017-09-24T01:36:48.848Z,56.83
2017-09-24T01:39:16.122Z,46.37
2017-09-24T01:41:43.401Z,44.53
2017-09-24T01:44:10.709Z,46.13
2017-09-24T01:46:37.978Z,46.27
2017-09-24T01:49:05.256Z,48.90
2017-09-24T01:51:32.548Z,41.33
2017-09-24T01:53:59.851Z,47.23
2017-09-24T01:56:27.123Z,45.57
2017-09-24T01:58:54.398Z,47.13
2017-09-24T02:01:21.711Z,41.63
2017-09-24T02:03:48.986Z,45.90
2017-09-24T02:06:16.290Z,45.70
2017-09-24T02:08:43.567Z,45.30
2017-09-24T02:11:10.838Z,48.90
2017-09-24T02:13:38.134Z,46.63
2017-09-24T02:16:05.403Z,47.07
2017-09-24T02:18:32.708Z,46.83
2017-09-24T02:20:59.979Z,50.73
2017-09-24T02:23:27.251Z,49.00
2017-09-24T02:25:54.551Z,49.80
2017-09-24T02:28:21.822Z,46.17
2017-09-24T02:30:49.123Z,44.17
2017-09-24T02:33:16.395Z,39.20
2017-09-24T02:35:43.694Z,39.80
2017-09-24T02:38:10.991Z,46.83
2017-09-24T02:40:38.308Z,45.07
2017-09-24T02:43:05.583Z,51.00
2017-09-24T02:45:32.852Z,44.70
2017-09-24T02:48:00.405Z,46.43
2017-09-24T02:50:27.709Z,44.60
2017-09-24T02:52:54.984Z,41.60
2017-09-24T02:55:22.302Z,43.10
2017-09-24T02:57:49.566Z,44.53
2017-09-24T03:00:16.843Z,35.80
2017-09-24T03:02:44.148Z,37.07
2017-09-24T03:05:11.424Z,41.17
2017-09-24T03:07:38.708Z,41.57
2017-09-24T03:10:05.997Z,44.67
2017-09-24T03:12:33.299Z,50.30
2017-09-24T03:15:00.600Z,43.97
2017-09-24T03:17:27.876Z,49.03
2017-09-24T03:19:55.179Z,48.37
2017-09-24T03:22:22.490Z,48.17
2017-09-24T03:24:49.763Z,43.93
2017-09-24T03:27:17.040Z,45.40
2017-09-24T03:29:44.334Z,47.30
2017-09-24T03:32:11.606Z,49.53
2017-09-24T03:34:38.912Z,48.73
2017-09-24T03:37:06.195Z,44.80
2017-09-24T03:39:33.512Z,50.23
2017-09-24T03:42:00.782Z,53.73
2017-09-24T03:44:28.059Z,42.27
2017-09-24T03:46:55.363Z,51.33
2017-09-24T03:49:22.658Z,46.77
2017-09-24T03:51:49.927Z,48.40
2017-09-24T03:54:17.391Z,52.03
2017-09-24T03:56:44.691Z,59.37
2017-09-24T03:59:11.963Z,54.23
2017-09-24T04:01:39.267Z,55.27
2017-09-24T04:04:06.583Z,63.03
2017-09-24T04:06:33.852Z,75.07
2017-09-24T04:09:01.119Z,67.10
2017-09-24T04:11:28.419Z,70.70
2017-09-24T04:13:56.575Z,81.20
2017-09-24T04:16:23.887Z,70.70
2017-09-24T04:18:51.152Z,90.63
2017-09-24T04:21:18.460Z,78.43
2017-09-24T04:23:45.726Z,75.43
2017-09-24T04:26:13.019Z,75.97
2017-09-24T04:28:40.323Z,79.97
2017-09-24T04:31:07.631Z,79.17
2017-09-24T04:33:34.912Z,76.17
2017-09-24T04:36:02.179Z,97.67
2017-09-24T04:38:29.480Z,92.10
2017-09-24T04:40:56.751Z,96.60
2017-09-24T04:43:24.051Z,104.53
2017-09-24T04:45:51.339Z,142.40
2017-09-24T04:48:18.647Z,116.83
2017-09-24T04:50:45.933Z,124.40
2017-09-24T04:53:13.268Z,123.70
2017-09-24T04:55:40.539Z,118.73
2017-09-24T04:58:07.815Z,120.40
2017-09-24T05:00:35.127Z,118.53
2017-09-24T05:03:02.455Z,117.00
2017-09-24T05:05:29.727Z,108.17
2017-09-24T05:07:57.003Z,87.70
2017-09-24T05:10:24.312Z,97.13
2017-09-24T05:12:51.583Z,91.33
2017-09-24T05:15:18.879Z,92.77
2017-09-24T05:17:46.153Z,70.93
2017-09-24T05:20:13.451Z,71.10
2017-09-24T05:22:40.727Z,73.87
2017-09-24T05:25:08.023Z,69.07
2017-09-24T05:27:35.302Z,60.47
2017-09-24T05:30:02.598Z,63.90
2017-09-24T05:32:29.867Z,60.43
2017-09-24T05:34:57.167Z,72.90
2017-09-24T05:37:24.442Z,72.33
2017-09-24T05:39:51.710Z,64.17
2017-09-24T05:42:19.016Z,87.20
2017-09-24T05:44:46.291Z,73.50
2017-09-24T05:47:13.598Z,67.17
2017-09-24T05:49:40.883Z,66.50
2017-09-24T05:52:09.587Z,70.47
2017-09-24T05:54:36.998Z,91.90
2017-09-24T05:57:08.083Z,169.73
2017-09-24T05:59:35.354Z,103.03
2017-09-24T06:02:02.644Z,101.87
2017-09-24T06:04:29.939Z,84.07
2017-09-24T06:06:57.212Z,87.53
2017-09-24T06:09:31.238Z,200.90
2017-09-24T06:11:58.836Z,113.77
2017-09-24T06:14:26.150Z,96.20
2017-09-24T06:16:53.427Z,108.80
2017-09-24T06:19:20.746Z,97.83
2017-09-24T06:21:48.012Z,94.33
2017-09-24T06:24:15.292Z,89.53
2017-09-24T06:26:42.596Z,94.67
2017-09-24T06:29:09.867Z,133.50
2017-09-24T06:31:37.191Z,120.73
2017-09-24T06:34:04.471Z,80.73
2017-09-24T06:36:31.750Z,94.77
2017-09-24T06:38:59.063Z,103.80
2017-09-24T06:41:26.841Z,92.57
2017-09-24T06:43:54.126Z,77.77
2017-09-24T06:46:21.440Z,90.47
2017-09-24T06:48:48.711Z,76.90
2017-09-24T06:51:15.984Z,85.23
2017-09-24T06:53:43.278Z,79.13
2017-09-24T06:56:10.564Z,75.33
2017-09-24T06:58:37.875Z,75.40
2017-09-24T07:01:05.148Z,77.13
2017-09-24T07:03:32.425Z,69.40
2017-09-24T07:05:59.734Z,78.90
2017-09-24T07:08:27.004Z,77.93
2017-09-24T07:10:54.291Z,75.63
2017-09-24T07:13:21.857Z,74.27
2017-09-24T07:15:49.115Z,81.07
2017-09-24T07:18:16.440Z,69.20
2017-09-24T07:20:43.724Z,79.03
2017-09-24T07:23:10.996Z,73.53
2017-09-24T07:25:38.290Z,84.03
2017-09-24T07:28:05.602Z,75.43
2017-09-24T07:30:32.928Z,77.87
2017-09-24T07:33:00.203Z,70.80
2017-09-24T07:35:27.475Z,77.53
2017-09-24T07:37:54.866Z,72.63
2017-09-24T07:40:22.189Z,74.83
2017-09-24T07:42:49.458Z,74.60
2017-09-24T07:45:16.739Z,81.10
2017-09-24T07:47:44.047Z,82.10
2017-09-24T07:50:11.350Z,74.23
2017-09-24T07:52:38.627Z,72.37
2017-09-24T07:55:05.915Z,81.83
2017-09-24T07:57:33.211Z,77.63
2017-09-24T08:00:00.486Z,74.13
2017-09-24T08:02:27.947Z,77.23
2017-09-24T08:04:55.224Z,74.17
2017-09-24T08:07:22.522Z,74.87
2017-09-24T08:09:49.800Z,74.50
2017-09-24T08:12:17.071Z,75.30
2017-09-24T08:14:44.363Z,73.43
2017-09-24T08:17:12.074Z,79.90
2017-09-24T08:19:39.552Z,66.97
2017-09-24T08:22:06.876Z,67.37
2017-09-24T08:24:34.231Z,70.30
2017-09-24T08:27:01.513Z,66.13
2017-09-24T08:29:28.846Z,74.20
2017-09-24T08:31:56.400Z,63.93
2017-09-24T08:34:23.687Z,63.97
2017-09-24T08:36:50.969Z,73.93
2017-09-24T08:39:18.254Z,67.20
2017-09-24T08:41:45.527Z,73.90
2017-09-24T08:44:12.829Z,73.47
2017-09-24T08:46:40.106Z,73.33
2017-09-24T08:49:07.387Z,62.33
2017-09-24T08:51:34.663Z,69.87
2017-09-24T08:54:01.970Z,67.27
2017-09-24T08:56:29.367Z,77.63
2017-09-24T08:58:56.635Z,74.90
2017-09-24T09:01:23.936Z,68.00
2017-09-24T09:03:51.205Z,73.73
2017-09-24T09:06:18.494Z,66.10
2017-09-24T09:08:45.773Z,65.90
2017-09-24T09:11:13.067Z,72.10
2017-09-24T09:13:40.336Z,73.73
2017-09-24T09:16:07.637Z,69.47
2017-09-24T09:18:34.964Z,72.30
2017-09-24T09:21:02.250Z,60.60
2017-09-24T09:23:29.575Z,55.53
2017-09-24T09:25:56.862Z,77.53
2017-09-24T09:28:24.141Z,57.20
2017-09-24T09:30:51.435Z,58.70
2017-09-24T09:33:20.518Z,51.40
2017-09-24T09:35:47.822Z,46.60
2017-09-24T09:38:15.114Z,48.63
2017-09-24T09:40:42.390Z,46.67
2017-09-24T09:43:09.660Z,45.57
2017-09-24T09:45:42.952Z,47.63
2017-09-24T09:48:10.227Z,58.83
2017-09-24T09:50:37.534Z,59.47
2017-09-24T09:53:04.807Z,58.33
2017-09-24T09:55:32.101Z,56.10
2017-09-24T09:57:59.380Z,55.40
2017-09-24T10:00:26.662Z,58.80
2017-09-24T10:02:53.933Z,57.13
2017-09-24T10:05:21.230Z,53.33
2017-09-24T10:07:54.312Z,57.77
2017-09-24T10:10:21.600Z,55.97
2017-09-24T10:12:48.872Z,48.90
2017-09-24T10:15:16.166Z,56.57
2017-09-24T10:17:43.435Z,53.97
2017-09-24T10:20:10.707Z,54.60
2017-09-24T10:22:38.000Z,58.87
2017-09-24T10:25:05.279Z,62.90
2017-09-24T10:27:32.570Z,58.50
2017-09-24T10:30:05.616Z,56.43
2017-09-24T10:32:32.887Z,63.03
2017-09-24T10:35:00.163Z,57.87
2017-09-24T10:37:27.464Z,60.57
2017-09-24T10:39:54.727Z,58.93
2017-09-24T10:42:22.022Z,57.13
2017-09-24T10:44:49.308Z,59.90
2017-09-24T10:47:16.698Z,63.50
2017-09-24T10:49:43.976Z,64.80
2017-09-24T10:52:12.153Z,70.97
2017-09-24T10:54:39.502Z,70.83
2017-09-24T10:57:06.795Z,69.43
2017-09-24T10:59:34.078Z,81.17
2017-09-24T11:02:01.384Z,77.53
2017-09-24T11:04:28.655Z,68.97
2017-09-24T11:06:55.939Z,71.53
2017-09-24T11:09:23.212Z,76.73
2017-09-24T11:11:50.507Z,71.10
2017-09-24T11:14:17.773Z,78.10
2017-09-24T11:16:45.066Z,82.83
2017-09-24T11:19:12.335Z,76.10
2017-09-24T11:21:39.633Z,78.87
2017-09-24T11:24:06.903Z,76.33
2017-09-24T11:26:34.203Z,82.27
2017-09-24T11:29:01.476Z,73.30
2017-09-24T11:31:28.764Z,90.47
2017-09-24T11:33:56.046Z,72.73
2017-09-24T11:36:23.322Z,77.97
2017-09-24T11:38:50.591Z,72.47
2017-09-24T11:41:17.894Z,74.80
2017-09-24T11:43:45.167Z,78.80
2017-09-24T11:46:12.466Z,71.90
2017-09-24T11:48:39.735Z,72.80
2017-09-24T11:51:07.003Z,76.50
2017-09-24T11:53:34.291Z,62.90
2017-09-24T11:56:01.572Z,71.43
2017-09-24T11:58:28.919Z,58.93
2017-09-24T12:00:56.192Z,62.07
2017-09-24T12:03:23.580Z,61.30
2017-09-24T12:05:50.848Z,58.43
2017-09-24T12:08:18.157Z,56.33
2017-09-24T12:10:45.423Z,52.53
2017-09-24T12:13:12.712Z,52.90
2017-09-24T12:15:39.987Z,52.53
2017-09-24T12:18:07.279Z,51.10
2017-09-24T12:20:34.550Z,54.63
2017-09-24T12:23:01.847Z,51.27
2017-09-24T12:25:29.128Z,59.17
2017-09-24T12:27:56.416Z,53.73
2017-09-24T12:30:23.695Z,55.93
2017-09-24T12:32:50.992Z,54.80
2017-09-24T12:35:18.263Z,52.00
2017-09-24T12:37:45.551Z,56.80
2017-09-24T12:40:12.823Z,51.67
2017-09-24T12:42:40.099Z,49.30
2017-09-24T12:45:07.396Z,53.37
2017-09-24T12:47:34.663Z,52.90
2017-09-24T12:50:01.959Z,51.43
2017-09-24T12:52:29.227Z,50.67
2017-09-24T12:54:56.518Z,49.40
2017-09-24T12:57:23.796Z,46.07
2017-09-24T12:59:51.079Z,47.33
2017-09-24T13:02:18.355Z,50.23
2017-09-24T13:04:45.639Z,47.63
2017-09-24T13:07:12.915Z,45.07
2017-09-24T13:09:40.202Z,47.20
2017-09-24T13:12:07.481Z,43.17
2017-09-24T13:14:34.772Z,42.63
2017-09-24T13:17:02.047Z,36.60
2017-09-24T13:19:29.342Z,40.50
2017-09-24T13:21:56.629Z,40.57
2017-09-24T13:24:23.922Z,42.63
2017-09-24T13:26:51.187Z,39.70
2017-09-24T13:29:18.484Z,38.13
2017-09-24T13:31:45.766Z,36.13
2017-09-24T13:36:47.006Z,35.60
2017-09-24T13:39:14.307Z,31.07
2017-09-24T13:41:41.579Z,30.67
2017-09-24T13:44:08.852Z,28.70
2017-09-24T13:46:36.149Z,29.13
2017-09-24T13:49:03.419Z,29.07
2017-09-24T13:51:30.717Z,29.30
2017-09-24T13:53:57.988Z,28.10
2017-09-24T13:56:25.277Z,30.90
2017-09-24T13:58:52.547Z,29.90
2017-09-24T14:01:19.839Z,29.33
2017-09-24T14:03:47.112Z,27.37
2017-09-24T14:06:14.399Z,29.80
2017-09-24T14:08:41.675Z,30.50
2017-09-24T14:11:08.967Z,30.90
2017-09-24T14:13:36.243Z,29.87
2017-09-24T14:16:03.538Z,29.83
2017-09-24T14:18:30.810Z,28.73
2017-09-24T14:20:58.102Z,24.97
2017-09-24T14:23:25.383Z,22.93
2017-09-24T14:25:52.674Z,25.10
2017-09-24T14:28:19.948Z,25.13
2017-09-24T14:30:47.380Z,34.37
2017-09-24T14:33:14.647Z,25.23
2017-09-24T14:35:41.944Z,26.13
2017-09-24T14:38:09.231Z,25.97
2017-09-24T14:40:36.502Z,37.83
2017-09-24T14:43:03.797Z,42.00
2017-09-24T14:45:31.062Z,30.40
2017-09-24T14:47:58.363Z,23.53
2017-09-24T14:50:25.634Z,23.80
2017-09-24T14:52:52.927Z,23.83
2017-09-24T14:55:20.199Z,23.90
2017-09-24T14:57:47.487Z,26.13
2017-09-24T15:00:14.763Z,29.20
2017-09-24T15:02:42.056Z,28.67
2017-09-24T15:05:09.328Z,27.40
2017-09-24T15:07:36.615Z,29.30
2017-09-24T15:10:03.887Z,24.10
2017-09-24T15:12:31.183Z,23.33
2017-09-24T15:14:58.451Z,22.33
2017-09-24T15:17:25.751Z,20.80
2017-09-24T15:19:53.024Z,22.30
2017-09-24T15:22:20.312Z,23.50
2017-09-24T15:24:47.583Z,21.27
2017-09-24T15:27:14.858Z,22.80
2017-09-24T15:29:42.152Z,20.33
2017-09-24T15:32:09.415Z,20.23
2017-09-24T15:34:36.709Z,20.57
2017-09-24T15:37:03.976Z,22.23
2017-09-24T15:39:31.267Z,21.23
2017-09-24T15:41:58.534Z,21.10
2017-09-24T15:44:25.832Z,17.67
2017-09-24T15:46:53.104Z,19.00
2017-09-24T15:49:20.391Z,16.20
2017-09-24T15:54:21.400Z,16.80
2017-09-24T15:56:48.676Z,16.87
2017-09-24T15:59:15.968Z,22.73
2017-09-24T16:01:43.239Z,16.67
2017-09-24T16:04:10.526Z,17.43
2017-09-24T16:06:37.811Z,18.30
2017-09-24T16:09:05.108Z,15.67
2017-09-24T16:11:32.385Z,17.33
2017-09-24T16:13:59.674Z,16.80
2017-09-24T16:16:26.950Z,18.00
2017-09-24T16:18:54.234Z,15.20
2017-09-24T16:21:21.499Z,18.03
2017-09-24T16:23:48.791Z,16.53
2017-09-24T16:26:16.064Z,15.80
2017-09-24T16:28:43.360Z,16.20
2017-09-24T16:31:10.628Z,14.60
2017-09-24T16:33:37.949Z,16.13
2017-09-24T16:36:05.219Z,14.80
2017-09-24T16:38:32.523Z,14.27
2017-09-24T16:40:59.779Z,13.20
2017-09-24T16:43:27.212Z,13.57
2017-09-24T16:45:54.467Z,14.27
2017-09-24T16:48:21.739Z,15.23
2017-09-24T16:50:49.038Z,16.27
2017-09-24T16:53:16.560Z,13.50
2017-09-24T16:55:43.943Z,17.53
2017-09-24T16:58:11.239Z,15.57
2017-09-24T17:00:38.576Z,15.70
2017-09-24T17:03:05.886Z,15.23
2017-09-24T17:05:33.202Z,17.17
2017-09-24T17:08:00.503Z,15.70
2017-09-24T17:10:27.800Z,16.03
2017-09-24T17:12:55.136Z,15.50
2017-09-24T17:15:22.543Z,16.80
2017-09-24T17:17:49.844Z,15.70
2017-09-24T17:20:17.151Z,15.17
2017-09-24T17:22:44.432Z,16.70
2017-09-24T17:25:11.722Z,17.60
2017-09-24T17:27:38.991Z,14.80
2017-09-24T17:30:06.369Z,16.10
2017-09-24T17:32:33.631Z,16.90
2017-09-24T17:35:00.931Z,15.03
2017-09-24T17:37:28.203Z,16.60
2017-09-24T17:39:55.500Z,15.30
2017-09-24T17:42:22.771Z,16.80
2017-09-24T17:44:50.059Z,15.80
2017-09-24T17:47:18.557Z,17.70
2017-09-24T17:49:46.295Z,14.50
2017-09-24T17:52:13.552Z,16.17
2017-09-24T17:54:43.970Z,15.30
2017-09-24T17:57:13.715Z,14.60
2017-09-24T17:59:42.247Z,14.67
2017-09-24T18:02:09.515Z,15.30
2017-09-24T18:04:36.783Z,14.40
2017-09-24T18:07:04.071Z,15.27
2017-09-24T18:09:31.338Z,19.03
2017-09-24T18:11:58.640Z,15.37
2017-09-24T18:14:25.919Z,14.87
2017-09-24T18:16:54.088Z,20.80
2017-09-24T18:19:21.696Z,15.47
2017-09-24T18:21:50.486Z,16.20
2017-09-24T18:24:20.554Z,14.60
2017-09-24T18:26:48.059Z,15.33
2017-09-24T18:29:15.335Z,15.23
2017-09-24T18:31:42.731Z,16.83
2017-09-24T18:34:10.005Z,15.87
2017-09-24T18:36:37.272Z,18.40
2017-09-24T18:39:04.578Z,16.73
2017-09-24T18:41:31.882Z,17.27
2017-09-24T18:43:59.189Z,15.80
2017-09-24T18:46:26.468Z,15.80
2017-09-24T18:48:53.778Z,20.33
2017-09-24T18:51:21.072Z,14.33
2017-09-24T18:53:48.387Z,17.20
2017-09-24T18:56:15.681Z,16.63
2017-09-24T18:58:42.981Z,17.70
2017-09-24T19:01:10.259Z,16.20
2017-09-24T19:03:37.644Z,16.83
2017-09-24T19:06:04.932Z,17.50
2017-09-24T19:08:32.274Z,19.63
2017-09-24T19:10:59.577Z,17.57
2017-09-24T19:13:26.878Z,17.33
2017-09-24T19:15:54.242Z,17.23
2017-09-24T19:18:21.518Z,17.60
2017-09-24T19:20:48.873Z,18.47
2017-09-24T19:23:16.189Z,20.70
2017-09-24T19:25:43.528Z,17.27
2017-09-24T19:28:10.865Z,15.20
2017-09-24T19:30:38.190Z,18.20
2017-09-24T19:33:05.442Z,16.37
2017-09-24T19:35:32.752Z,17.87
2017-09-24T19:38:00.792Z,20.07
2017-09-24T19:40:28.099Z,18.50
2017-09-24T19:42:55.376Z,19.90
2017-09-24T19:45:22.702Z,16.63
2017-09-24T19:47:50.030Z,18.57
2017-09-24T19:50:17.401Z,19.07
2017-09-24T19:52:44.709Z,14.93
2017-09-24T19:55:12.060Z,19.60
2017-09-24T19:57:39.500Z,18.03
2017-09-24T20:00:06.837Z,16.93
2017-09-24T20:02:34.122Z,22.43
2017-09-24T20:05:01.463Z,19.43
2017-09-24T20:07:28.707Z,22.17
2017-09-24T20:09:56.083Z,19.90
2017-09-24T20:12:23.426Z,20.90
2017-09-24T20:14:50.747Z,20.30
2017-09-24T20:17:18.022Z,20.90
2017-09-24T20:19:45.352Z,18.00
2017-09-24T20:22:12.627Z,18.53
2017-09-24T20:24:39.919Z,19.27
2017-09-24T20:27:07.290Z,19.20
2017-09-24T20:29:34.602Z,21.20
2017-09-24T20:32:02.023Z,18.97
2017-09-24T20:34:29.311Z,17.63
2017-09-24T20:36:56.735Z,18.60
2017-09-24T20:39:23.992Z,18.57
2017-09-24T20:41:51.291Z,21.90
2017-09-24T20:44:18.570Z,17.60
2017-09-24T20:46:45.867Z,19.23
2017-09-24T20:49:13.135Z,20.07
2017-09-24T20:51:40.431Z,18.17
2017-09-24T20:54:07.834Z,19.30
2017-09-24T20:56:35.171Z,20.03
2017-09-24T20:59:02.459Z,17.60
2017-09-24T21:01:29.755Z,19.20
2017-09-24T21:03:57.032Z,18.17
2017-09-24T21:06:24.337Z,19.97
2017-09-24T21:08:51.651Z,23.23
2017-09-24T21:11:18.963Z,20.13
2017-09-24T21:13:46.270Z,24.07
2017-09-24T21:16:13.563Z,20.40
2017-09-24T21:18:40.864Z,17.87
2017-09-24T21:21:08.154Z,18.50
2017-09-24T21:23:35.436Z,17.80
2017-09-24T21:26:02.759Z,20.30
2017-09-24T21:28:30.072Z,20.80
2017-09-24T21:30:58.308Z,19.03
2017-09-24T21:33:25.598Z,20.30
2017-09-24T21:35:52.921Z,18.17
2017-09-24T21:38:20.221Z,18.23
2017-09-24T21:40:47.535Z,22.23
2017-09-24T21:43:14.824Z,17.50
2017-09-24T21:45:42.251Z,17.60
2017-09-24T21:48:09.541Z,23.20
2017-09-24T21:50:36.838Z,21.13
2017-09-24T21:53:04.151Z,18.70
2017-09-24T21:55:31.539Z,16.07
2017-09-24T21:57:58.833Z,17.10
2017-09-24T22:00:26.144Z,16.40
2017-09-24T22:02:53.449Z,21.67
2017-09-24T22:05:20.711Z,16.20
2017-09-24T22:07:48.002Z,17.33
2017-09-24T22:10:15.386Z,17.03
2017-09-24T22:12:42.680Z,17.43
2017-09-24T22:15:09.951Z,18.20
2017-09-24T22:17:37.287Z,18.93
2017-09-24T22:20:04.559Z,17.83
2017-09-24T22:22:31.853Z,17.60
2017-09-24T22:24:59.184Z,19.27
2017-09-24T22:27:26.523Z,17.43
2017-09-24T22:29:53.802Z,16.27
2017-09-24T22:32:21.099Z,15.27
2017-09-24T22:34:48.385Z,15.63
2017-09-24T22:37:15.703Z,17.50
2017-09-24T22:39:43.025Z,19.37
2017-09-24T22:42:10.319Z,17.17
2017-09-24T22:44:37.644Z,18.73
2017-09-24T22:47:04.956Z,16.20
2017-09-24T22:49:32.336Z,17.50
2017-09-24T22:51:59.606Z,16.90
2017-09-24T22:54:26.900Z,17.43
2017-09-24T22:56:54.177Z,18.57
2017-09-24T22:59:21.471Z,16.13
2017-09-24T23:01:48.756Z,16.80
2017-09-24T23:04:16.051Z,18.30
2017-09-24T23:06:43.323Z,19.00
2017-09-24T23:09:10.615Z,23.00
2017-09-24T23:11:37.886Z,19.70
2017-09-24T23:14:05.185Z,16.90
2017-09-24T23:16:32.459Z,18.20
2017-09-24T23:18:59.747Z,19.47
2017-09-24T23:21:27.015Z,21.77
2017-09-24T23:23:54.309Z,20.87
2017-09-24T23:26:21.584Z,21.63
2017-09-24T23:28:48.875Z,25.87
2017-09-24T23:31:16.151Z,24.20
2017-09-24T23:33:43.443Z,27.60
2017-09-24T23:36:10.718Z,21.10
2017-09-24T23:38:38.011Z,26.80
2017-09-24T23:41:05.284Z,22.93
2017-09-24T23:43:32.571Z,23.50
2017-09-24T23:45:59.863Z,22.60
2017-09-24T23:48:27.180Z,26.30
2017-09-24T23:50:54.472Z,27.57
2017-09-24T23:53:21.743Z,29.20
2017-09-24T23:55:49.034Z,29.47
2017-09-24T23:58:16.306Z,25.83
